Time;durP1;ratioP1;P1;durP2;ratioP2;P2;SDS_P1;SDS_P2;PMS_P1;PMS_P2;Temp;Humidity;BMP_temperature;BMP_pressure;BME280_temperature;BME280_humidity;BME280_pressure;Samples;Min_cycle;Max_cycle;Signal;HPM_P1;HPM_P2
2022/06/18 00:01:34;;;;;;;26.42;6.00;;;24.10;94.10;;;;;;5032521;28;20049;-75
2022/06/18 00:04:15;;;;;;;36.92;7.15;;;24.10;94.50;;;;;;5034758;28;20031;-75
2022/06/18 00:06:50;;;;;;;28.17;6.72;;;24.10;94.50;;;;;;5030226;28;20030;-75
2022/06/18 00:09:20;;;;;;;22.48;5.75;;;24.00;94.80;;;;;;5027055;28;20033;-75
2022/06/18 00:14:32;;;;;;;25.88;5.70;;;23.90;95.00;;;;;;5037285;28;20036;-75
2022/06/18 00:16:57;;;;;;;15.70;5.47;;;23.80;94.90;;;;;;5036100;28;20021;-75
2022/06/18 00:19:23;;;;;;;20.45;4.68;;;23.80;95.20;;;;;;5036230;28;20434;-75
2022/06/18 00:21:50;;;;;;;19.95;4.57;;;23.80;95.30;;;;;;5038842;28;20499;-76
2022/06/18 00:24:19;;;;;;;18.45;5.68;;;23.70;95.30;;;;;;5016420;28;20061;-76
2022/06/18 00:26:45;;;;;;;27.55;5.22;;;23.70;95.20;;;;;;5021059;28;20049;-75
2022/06/18 00:29:14;;;;;;;27.83;6.35;;;23.60;95.10;;;;;;5022874;28;20063;-75
2022/06/18 00:31:40;;;;;;;37.60;7.07;;;23.60;95.30;;;;;;5031582;28;20108;-75
2022/06/18 00:34:07;;;;;;;26.85;5.72;;;23.50;95.40;;;;;;5011273;28;20036;-75
2022/06/18 00:36:35;;;;;;;34.60;6.32;;;23.50;95.90;;;;;;5025125;28;20033;-75
2022/06/18 00:39:00;;;;;;;27.25;6.72;;;23.50;96.20;;;;;;5031750;28;20029;-75
2022/06/18 00:41:27;;;;;;;35.88;6.45;;;23.50;96.10;;;;;;5026397;28;20026;-76
2022/06/18 00:44:01;;;;;;;31.60;6.38;;;23.50;96.50;;;;;;5032575;28;20453;-77
2022/06/18 00:46:41;;;;;;;27.10;6.07;;;23.50;96.40;;;;;;5029945;28;20026;-76
2022/06/18 00:49:10;;;;;;;42.92;7.68;;;23.50;96.60;;;;;;5035075;28;20069;-76
2022/06/18 00:51:45;;;;;;;17.85;6.50;;;23.50;97.00;;;;;;5015301;28;20506;-77
2022/06/18 00:54:20;;;;;;;20.95;5.85;;;23.40;97.30;;;;;;5037351;28;20431;-76
2022/06/18 00:57:20;;;;;;;29.85;6.70;;;23.30;97.30;;;;;;5035354;28;21059;-76
2022/06/18 00:59:59;;;;;;;25.77;6.10;;;23.30;97.50;;;;;;5038667;28;20093;-76
2022/06/18 01:02:34;;;;;;;24.08;7.03;;;23.20;98.10;;;;;;5015959;28;20033;-76
2022/06/18 01:05:01;;;;;;;40.65;6.90;;;23.20;98.10;;;;;;5036411;28;20033;-77
2022/06/18 01:07:35;;;;;;;22.85;6.30;;;23.20;98.30;;;;;;5031256;28;20038;-76
2022/06/18 01:10:04;;;;;;;31.30;7.32;;;23.20;98.00;;;;;;5025777;28;20108;-76
2022/06/18 01:12:30;;;;;;;29.80;5.70;;;23.10;98.60;;;;;;5027945;28;20024;-76
2022/06/18 01:15:09;;;;;;;26.05;6.22;;;23.10;98.50;;;;;;5037979;28;20030;-76
2022/06/18 01:17:36;;;;;;;27.95;6.82;;;23.10;98.90;;;;;;5031967;28;20105;-76
2022/06/18 01:20:05;;;;;;;25.90;5.78;;;23.00;99.00;;;;;;5034992;28;20038;-76
2022/06/18 01:22:52;;;;;;;28.73;6.80;;;23.00;99.10;;;;;;5034168;28;20512;-76
2022/06/18 01:25:20;;;;;;;25.27;6.43;;;23.00;99.40;;;;;;5018992;28;20097;-76
2022/06/18 01:27:47;;;;;;;24.48;6.15;;;22.90;99.50;;;;;;5036490;28;20021;-76
2022/06/18 01:30:20;;;;;;;24.58;6.05;;;22.90;99.90;;;;;;5019513;28;20500;-76
2022/06/18 01:32:48;;;;;;;27.65;6.38;;;22.80;99.80;;;;;;5034174;28;20081;-76
2022/06/18 01:35:14;;;;;;;29.45;6.25;;;22.80;99.90;;;;;;5026427;28;20025;-77
2022/06/18 01:37:40;;;;;;;34.92;7.35;;;22.70;99.90;;;;;;5037237;28;20052;-77
2022/06/18 01:40:12;;;;;;;25.73;6.95;;;22.70;99.90;;;;;;5019448;28;20088;-77
2022/06/18 01:42:46;;;;;;;30.30;6.90;;;22.70;99.90;;;;;;5012144;28;20140;-77
2022/06/18 01:45:18;;;;;;;33.53;7.88;;;22.60;99.90;;;;;;5032711;28;20040;-77
2022/06/18 01:47:57;;;;;;;28.50;7.22;;;22.60;99.90;;;;;;5020630;28;20505;-76
2022/06/18 01:50:29;;;;;;;20.27;7.38;;;22.50;99.90;;;;;;5024976;28;20026;-77
2022/06/18 01:53:10;;;;;;;35.05;6.90;;;22.50;99.90;;;;;;5022801;28;20045;-77
2022/06/18 01:55:47;;;;;;;27.42;7.78;;;22.40;99.90;;;;;;5009086;28;20084;-77
2022/06/18 01:58:20;;;;;;;24.27;6.47;;;22.30;99.90;;;;;;5032555;28;20140;-76
2022/06/18 02:00:51;;;;;;;19.30;6.70;;;22.30;99.90;;;;;;5016694;28;20018;-75
2022/06/18 02:03:18;;;;;;;20.58;6.20;;;22.40;99.90;;;;;;5035300;28;20049;-75
2022/06/18 02:05:44;;;;;;;20.98;5.43;;;22.50;99.90;;;;;;5035802;28;20057;-76
2022/06/18 02:08:12;;;;;;;17.30;5.28;;;22.80;99.80;;;;;;5012840;28;20014;-75
2022/06/18 02:10:57;;;;;;;18.27;5.40;;;22.90;99.30;;;;;;5025605;28;20026;-76
2022/06/18 02:13:27;;;;;;;20.25;5.30;;;23.10;98.60;;;;;;5008979;28;20032;-76
2022/06/18 02:15:55;;;;;;;20.27;5.43;;;23.20;98.30;;;;;;5016037;28;20030;-77
2022/06/18 02:18:21;;;;;;;15.88;6.03;;;23.30;98.20;;;;;;5034789;28;20022;-75
2022/06/18 02:20:51;;;;;;;12.13;5.30;;;23.30;98.50;;;;;;5033373;28;20018;-76
2022/06/18 02:23:19;;;;;;;18.55;4.68;;;23.20;98.40;;;;;;5018993;28;20504;-77
2022/06/18 02:25:45;;;;;;;13.70;4.80;;;23.20;98.90;;;;;;5033036;28;20021;-76
2022/06/18 02:28:13;;;;;;;16.05;5.85;;;23.20;98.70;;;;;;5026052;28;20025;-77
2022/06/18 02:30:39;;;;;;;17.27;5.55;;;23.20;98.90;;;;;;5036980;28;20057;-76
2022/06/18 02:33:34;;;;;;;12.43;4.70;;;23.10;99.00;;;;;;5012913;28;20032;-76
2022/06/18 02:36:20;;;;;;;13.80;4.55;;;23.00;99.20;;;;;;5008150;28;20021;-76
2022/06/18 02:38:48;;;;;;;16.38;4.75;;;22.90;99.20;;;;;;5026719;28;20025;-76
2022/06/18 02:41:14;;;;;;;11.18;4.18;;;22.80;99.70;;;;;;5021747;28;20029;-76
2022/06/18 02:43:42;;;;;;;16.90;5.78;;;22.80;99.90;;;;;;5025608;28;20502;-77
2022/06/18 02:46:09;;;;;;;8.25;4.68;;;22.80;99.90;;;;;;5032311;28;20593;-76
2022/06/18 02:48:37;;;;;;;18.85;5.65;;;22.70;99.90;;;;;;5010309;28;20049;-76
2022/06/18 02:51:04;;;;;;;10.63;4.30;;;22.60;99.90;;;;;;5027740;28;20076;-76
2022/06/18 02:53:32;;;;;;;11.25;4.70;;;22.60;99.90;;;;;;5030150;28;20022;-77
2022/06/18 02:56:02;;;;;;;11.90;4.63;;;22.50;99.90;;;;;;5031302;28;20029;-76
2022/06/18 02:58:34;;;;;;;13.80;5.07;;;22.50;99.90;;;;;;5015259;28;20103;-77
2022/06/18 03:01:05;;;;;;;10.50;4.30;;;22.50;99.90;;;;;;5034260;28;20025;-77
2022/06/18 03:03:36;;;;;;;;;;;22.40;99.90;;;;;;5024717;28;20024;-76
2022/06/18 03:06:02;;;;;;;;;;;22.40;99.90;;;;;;5006699;28;19905;-76
2022/06/18 03:08:29;;;;;;;16.25;4.38;;;22.40;99.90;;;;;;5019217;28;20318;-76
2022/06/18 03:13:41;;;;;;;15.68;4.70;;;22.30;99.90;;;;;;5020563;28;20080;-77
2022/06/18 03:16:09;;;;;;;19.40;5.63;;;22.30;99.90;;;;;;5032114;28;20029;-77
2022/06/18 03:18:37;;;;;;;16.95;5.15;;;22.30;99.90;;;;;;5005556;28;20088;-77
2022/06/18 03:21:15;;;;;;;13.82;5.13;;;22.30;99.90;;;;;;5027557;28;20032;-77
2022/06/18 03:23:42;;;;;;;13.13;4.60;;;22.20;99.90;;;;;;5007297;28;20022;-76
2022/06/18 03:26:07;;;;;;;18.30;5.03;;;22.20;99.90;;;;;;5013320;28;20029;-76
2022/06/18 03:28:34;;;;;;;14.40;4.90;;;22.10;99.90;;;;;;5029584;28;20014;-76
2022/06/18 03:30:59;;;;;;;13.95;4.25;;;22.10;99.90;;;;;;5036441;28;20030;-76
2022/06/18 03:33:25;;;;;;;18.23;5.35;;;22.00;99.90;;;;;;5031861;28;20037;-76
2022/06/18 03:35:52;;;;;;;11.80;4.88;;;22.00;99.90;;;;;;5035005;28;20045;-76
2022/06/18 03:38:19;;;;;;;14.82;4.80;;;21.90;99.90;;;;;;5012205;28;20022;-76
2022/06/18 03:40:46;;;;;;;12.52;4.65;;;21.90;99.90;;;;;;5013715;28;20033;-77
2022/06/18 03:43:12;;;;;;;8.73;4.43;;;21.90;99.90;;;;;;5010270;28;20014;-76
2022/06/18 03:45:43;;;;;;;7.70;4.78;;;21.90;99.90;;;;;;5040072;28;20076;-76
2022/06/18 03:48:23;;;;;;;15.13;5.07;;;21.90;99.90;;;;;;5017685;28;20390;-77
2022/06/18 03:50:50;;;;;;;9.70;4.35;;;21.90;99.90;;;;;;5039104;28;20393;-76
2022/06/18 03:53:16;;;;;;;12.18;4.57;;;21.90;99.90;;;;;;5021598;28;20604;-76
2022/06/18 03:55:43;;;;;;;13.35;4.95;;;21.80;99.90;;;;;;5031198;28;20443;-77
2022/06/18 03:58:09;;;;;;;13.30;5.28;;;21.80;99.90;;;;;;5023988;28;20036;-76
2022/06/18 04:00:36;;;;;;;17.55;5.10;;;21.80;99.90;;;;;;5005569;28;20030;-76
2022/06/18 04:03:02;;;;;;;12.10;5.43;;;21.70;99.90;;;;;;5036705;28;20025;-76
2022/06/18 04:05:29;;;;;;;8.95;4.72;;;21.70;99.90;;;;;;5008887;28;20456;-76
2022/06/18 04:07:55;;;;;;;15.35;4.88;;;21.60;99.90;;;;;;5030669;28;20028;-77
2022/06/18 04:10:22;;;;;;;13.27;4.70;;;21.60;99.90;;;;;;5012393;28;20021;-76
2022/06/18 04:12:48;;;;;;;12.30;5.45;;;21.60;99.90;;;;;;5014422;28;20056;-76
2022/06/18 04:15:15;;;;;;;11.40;4.88;;;21.60;99.90;;;;;;5014392;28;20080;-76
2022/06/18 04:17:42;;;;;;;10.55;5.63;;;21.60;99.90;;;;;;5021331;28;20032;-76
2022/06/18 04:20:18;;;;;;;13.18;5.38;;;21.50;99.90;;;;;;5021598;28;20017;-76
2022/06/18 04:22:44;;;;;;;15.75;5.75;;;21.50;99.90;;;;;;5039156;28;20061;-76
2022/06/18 04:25:10;;;;;;;15.20;5.82;;;21.50;99.90;;;;;;5021459;28;20041;-76
2022/06/18 04:27:36;;;;;;;10.57;4.85;;;21.60;99.90;;;;;;5039193;28;20044;-76
2022/06/18 04:30:03;;;;;;;8.32;5.15;;;21.60;99.90;;;;;;5016514;28;20022;-76
2022/06/18 04:32:29;;;;;;;10.38;5.28;;;21.60;99.90;;;;;;5027199;28;20045;-76
2022/06/18 04:34:55;;;;;;;13.02;5.45;;;21.60;99.90;;;;;;5039218;28;20111;-76
2022/06/18 04:37:21;;;;;;;14.98;4.93;;;21.80;99.90;;;;;;5021261;28;20035;-76
2022/06/18 04:39:47;;;;;;;14.55;5.35;;;21.80;99.90;;;;;;5021151;28;20021;-76
2022/06/18 04:42:12;;;;;;;19.85;6.20;;;21.90;99.90;;;;;;5038908;28;20036;-75
2022/06/18 04:44:38;;;;;;;15.13;6.35;;;21.90;99.90;;;;;;5020990;28;20071;-76
2022/06/18 04:47:04;;;;;;;11.77;4.93;;;22.00;99.90;;;;;;5038917;28;20417;-76
2022/06/18 04:49:30;;;;;;;13.82;5.03;;;22.10;99.90;;;;;;5038349;28;20049;-76
2022/06/18 04:51:56;;;;;;;10.65;4.85;;;22.30;99.90;;;;;;5038505;28;20494;-75
2022/06/18 04:54:21;;;;;;;9.90;4.68;;;22.30;99.90;;;;;;5038415;28;20044;-76
2022/06/18 04:56:47;;;;;;;13.63;4.88;;;22.50;99.90;;;;;;5014886;28;20017;-75
2022/06/18 04:59:15;;;;;;;16.55;4.97;;;22.60;99.90;;;;;;5002254;28;20080;-75
2022/06/18 05:01:41;;;;;;;15.45;5.68;;;22.70;99.90;;;;;;5032597;28;20033;-76
2022/06/18 05:04:08;;;;;;;16.50;4.93;;;22.80;99.90;;;;;;5021325;28;20030;-76
2022/06/18 05:06:34;;;;;;;18.00;5.38;;;22.90;99.90;;;;;;5035263;28;20085;-76
2022/06/18 05:09:00;;;;;;;14.07;4.95;;;23.00;99.90;;;;;;5024336;28;20601;-76
2022/06/18 05:11:26;;;;;;;10.13;4.82;;;23.10;99.90;;;;;;5019373;28;20030;-75
2022/06/18 05:13:52;;;;;;;9.80;5.38;;;23.20;99.90;;;;;;5037358;28;20096;-75
2022/06/18 05:16:18;;;;;;;10.10;5.15;;;23.30;99.90;;;;;;5038412;28;20056;-75
2022/06/18 05:18:45;;;;;;;12.18;5.10;;;23.40;99.90;;;;;;5038302;28;20025;-75
2022/06/18 05:21:12;;;;;;;11.40;4.55;;;23.50;99.90;;;;;;5011399;28;20032;-75
2022/06/18 05:23:37;;;;;;;10.52;4.35;;;23.60;99.90;;;;;;5005597;28;20075;-75
2022/06/18 05:26:11;;;;;;;11.25;4.78;;;23.70;99.90;;;;;;5029226;28;20108;-75
2022/06/18 05:28:37;;;;;;;13.20;4.50;;;23.70;99.90;;;;;;5007279;28;20022;-75
2022/06/18 05:31:02;;;;;;;16.67;5.25;;;23.80;99.90;;;;;;5032089;28;20519;-75
2022/06/18 05:33:28;;;;;;;17.27;5.22;;;23.90;99.70;;;;;;5036328;28;20013;-76
2022/06/18 05:35:54;;;;;;;9.13;4.53;;;24.00;99.90;;;;;;5036504;28;20063;-76
2022/06/18 05:38:21;;;;;;;11.55;4.75;;;24.10;99.30;;;;;;5027527;28;20097;-74
2022/06/18 05:40:48;;;;;;;5.97;4.22;;;24.20;98.80;;;;;;5031110;28;20516;-75
2022/06/18 05:43:14;;;;;;;13.90;4.72;;;24.30;98.90;;;;;;5015849;28;20112;-74
2022/06/18 05:45:42;;;;;;;13.30;4.72;;;24.40;98.80;;;;;;5037344;28;20105;-74
2022/06/18 05:48:09;;;;;;;10.90;4.70;;;24.40;98.20;;;;;;5036895;28;20064;-73
2022/06/18 05:50:34;;;;;;;7.72;4.72;;;24.50;98.80;;;;;;5031433;28;20076;-74
2022/06/18 05:53:00;;;;;;;12.07;5.32;;;24.60;98.20;;;;;;5021141;28;20025;-74
2022/06/18 05:55:26;;;;;;;8.52;4.50;;;24.60;98.40;;;;;;5022240;28;20148;-74
2022/06/18 05:57:54;;;;;;;12.57;4.70;;;24.70;98.00;;;;;;5005142;28;20049;-74
2022/06/18 06:00:29;;;;;;;26.25;6.28;;;24.90;97.30;;;;;;5025742;28;20014;-76
2022/06/18 06:02:56;;;;;;;11.95;4.57;;;25.00;97.40;;;;;;5031577;28;20026;-73
2022/06/18 06:05:22;;;;;;;11.90;5.28;;;25.10;96.60;;;;;;5037840;28;20199;-75
2022/06/18 06:07:49;;;;;;;11.32;4.28;;;25.20;96.20;;;;;;5031983;28;20065;-76
2022/06/18 06:13:10;;;;;;;12.23;3.92;;;25.30;95.90;;;;;;5033805;28;20569;-75
2022/06/18 06:15:37;;;;;;;9.27;4.30;;;25.50;95.30;;;;;;5030978;28;20022;-75
2022/06/18 06:18:04;;;;;;;14.27;4.47;;;25.70;95.60;;;;;;5035553;28;20537;-75
2022/06/18 06:20:34;;;;;;;13.43;4.70;;;25.80;94.70;;;;;;5033797;28;20026;-76
2022/06/18 06:23:00;;;;;;;12.50;4.63;;;26.00;94.10;;;;;;5033173;28;20026;-76
2022/06/18 06:25:26;;;;;;;10.05;3.92;;;26.10;93.60;;;;;;5022572;28;20402;-75
2022/06/18 06:27:52;;;;;;;13.00;4.32;;;26.20;93.90;;;;;;5036591;28;20056;-75
2022/06/18 06:30:18;;;;;;;11.30;4.20;;;26.20;94.00;;;;;;5035508;28;20101;-75
2022/06/18 06:32:45;;;;;;;12.68;4.88;;;26.40;93.70;;;;;;5036125;28;20108;-74
2022/06/18 06:35:12;;;;;;;13.00;4.07;;;26.50;92.90;;;;;;5037305;28;20539;-75
2022/06/18 06:37:39;;;;;;;13.77;4.22;;;26.50;92.70;;;;;;5030368;28;20109;-75
2022/06/18 06:40:06;;;;;;;13.90;4.10;;;26.60;92.20;;;;;;5026684;28;20053;-75
2022/06/18 06:42:47;;;;;;;9.48;4.38;;;26.70;92.40;;;;;;5025396;28;20030;-75
2022/06/18 06:45:21;;;;;;;14.77;4.47;;;26.80;92.30;;;;;;5026329;28;20116;-75
2022/06/18 06:47:48;;;;;;;16.17;4.88;;;26.90;91.90;;;;;;5036558;28;20040;-74
2022/06/18 06:50:16;;;;;;;12.82;4.28;;;27.10;91.60;;;;;;5015633;28;20068;-75
2022/06/18 06:52:43;;;;;;;12.35;4.35;;;27.20;91.20;;;;;;5009641;28;20061;-75
2022/06/18 06:58:11;;;;;;;14.95;4.57;;;27.50;90.50;;;;;;5023786;28;20040;-74
2022/06/18 07:00:49;;;;;;;14.65;4.90;;;27.60;90.20;;;;;;5021680;28;20650;-74
2022/06/18 07:03:17;;;;;;;10.15;4.15;;;27.70;89.30;;;;;;5017041;28;20433;-74
2022/06/18 07:05:44;;;;;;;11.80;4.28;;;27.80;88.80;;;;;;5008452;28;20026;-75
2022/06/18 07:08:10;;;;;;;12.55;3.85;;;27.90;88.20;;;;;;5019431;28;20944;-74
2022/06/18 07:10:36;;;;;;;8.90;4.35;;;27.90;87.00;;;;;;5027915;28;20026;-74
2022/06/18 07:13:04;;;;;;;14.02;4.93;;;28.10;86.50;;;;;;5031499;28;20029;-74
2022/06/18 07:15:30;;;;;;;12.60;4.40;;;28.20;85.20;;;;;;5022714;28;20025;-76
2022/06/18 07:17:57;;;;;;;10.90;3.50;;;28.40;85.70;;;;;;5017900;28;20508;-75
2022/06/18 07:20:23;;;;;;;13.32;3.60;;;28.50;85.10;;;;;;5042856;28;20033;-75
2022/06/18 07:22:49;;;;;;;6.70;3.50;;;28.60;84.50;;;;;;5006957;28;20022;-74
2022/06/18 07:25:15;;;;;;;13.50;3.65;;;28.70;83.80;;;;;;5024997;28;20057;-75
2022/06/18 07:27:42;;;;;;;22.45;4.60;;;28.80;82.50;;;;;;5027252;28;20025;-75
2022/06/18 07:30:09;;;;;;;15.90;3.50;;;28.90;82.30;;;;;;5025930;28;20036;-75
2022/06/18 07:32:37;;;;;;;9.55;3.38;;;28.90;80.60;;;;;;5014136;28;20104;-75
2022/06/18 07:35:04;;;;;;;18.65;3.83;;;29.00;80.80;;;;;;5029231;28;20022;-75
2022/06/18 07:37:30;;;;;;;13.20;3.30;;;29.10;79.30;;;;;;5034928;28;20041;-75
2022/06/18 07:39:56;;;;;;;6.95;2.97;;;29.20;79.70;;;;;;5012826;28;20044;-74
2022/06/18 07:42:23;;;;;;;9.95;3.33;;;29.30;79.30;;;;;;5019678;28;20534;-74
2022/06/18 07:44:49;;;;;;;10.30;3.80;;;29.40;79.20;;;;;;5033032;28;20026;-75
2022/06/18 07:47:17;;;;;;;13.48;3.78;;;29.60;78.70;;;;;;5039068;28;20397;-75
2022/06/18 07:49:45;;;;;;;11.25;3.40;;;29.70;76.60;;;;;;5018288;28;20050;-74
2022/06/18 07:52:13;;;;;;;9.18;3.42;;;29.80;75.80;;;;;;5041193;28;20014;-74
2022/06/18 07:54:40;;;;;;;13.02;3.28;;;29.90;75.20;;;;;;5041188;28;20105;-74
2022/06/18 07:57:06;;;;;;;9.23;3.30;;;29.90;73.10;;;;;;5024336;28;20018;-74
2022/06/18 07:59:32;;;;;;;10.52;2.63;;;30.00;72.40;;;;;;5007526;28;20455;-74
2022/06/18 08:01:58;;;;;;;9.68;3.63;;;30.10;71.70;;;;;;5033337;28;20027;-74
2022/06/18 08:04:24;;;;;;;14.70;3.50;;;30.10;70.30;;;;;;5042158;28;20041;-74
2022/06/18 08:06:50;;;;;;;11.60;2.63;;;30.30;70.00;;;;;;5019088;28;20125;-73
2022/06/18 08:09:16;;;;;;;10.65;3.50;;;30.40;70.10;;;;;;5030278;28;20057;-73
2022/06/18 08:11:42;;;;;;;10.70;3.15;;;30.50;69.70;;;;;;5035108;28;20017;-75
2022/06/18 08:14:09;;;;;;;11.02;3.92;;;30.60;69.10;;;;;;5006518;28;20022;-75
2022/06/18 08:16:35;;;;;;;10.73;2.78;;;30.70;68.80;;;;;;5031926;28;20089;-75
2022/06/18 08:19:01;;;;;;;8.55;2.78;;;30.70;67.50;;;;;;5019335;28;20057;-74
2022/06/18 08:21:33;;;;;;;10.60;2.67;;;30.70;66.80;;;;;;5028286;28;20101;-74
2022/06/18 08:24:04;;;;;;;7.70;2.88;;;30.80;66.20;;;;;;5010966;28;20056;-74
2022/06/18 08:26:30;;;;;;;15.98;3.30;;;30.80;66.70;;;;;;5013182;28;20026;-74
2022/06/18 08:28:56;;;;;;;9.13;2.88;;;31.00;67.90;;;;;;5030677;28;20064;-75
2022/06/18 08:31:22;;;;;;;6.18;3.15;;;31.10;66.70;;;;;;5031363;28;20013;-74
2022/06/18 08:33:48;;;;;;;19.25;3.72;;;31.30;65.20;;;;;;5029948;28;20030;-73
2022/06/18 08:36:16;;;;;;;16.15;3.42;;;31.30;63.90;;;;;;5039057;28;20031;-74
2022/06/18 08:38:46;;;;;;;17.73;3.30;;;31.30;63.90;;;;;;5033332;28;20433;-74
2022/06/18 08:41:27;;;;;;;8.50;3.42;;;31.20;64.70;;;;;;5038067;28;20048;-74
2022/06/18 08:44:09;;;;;;;12.07;3.38;;;31.30;64.90;;;;;;5020156;28;20025;-74
2022/06/18 08:46:53;;;;;;;9.50;3.00;;;31.30;63.90;;;;;;5025870;28;20076;-75
2022/06/18 08:50:01;;;;;;;11.70;3.03;;;31.50;65.10;;;;;;5021058;28;20046;-75
2022/06/18 08:53:04;;;;;;;20.00;3.67;;;31.60;65.90;;;;;;5022617;28;20482;-74
2022/06/18 08:55:35;;;;;;;10.52;2.80;;;31.70;64.90;;;;;;5005664;28;20022;-73
2022/06/18 08:58:25;;;;;;;13.07;2.80;;;31.80;65.60;;;;;;5025696;28;20025;-76
2022/06/18 09:01:12;;;;;;;16.77;3.27;;;31.80;66.20;;;;;;5025295;28;20044;-76
2022/06/18 09:03:53;;;;;;;12.20;3.45;;;32.10;64.10;;;;;;5025085;28;20862;-76
2022/06/18 09:06:31;;;;;;;10.48;2.85;;;32.20;63.90;;;;;;5038754;28;20418;-76
2022/06/18 09:09:22;;;;;;;15.65;3.03;;;32.10;63.50;;;;;;5018421;28;20042;-76
2022/06/18 09:11:56;;;;;;;10.73;3.95;;;32.10;62.20;;;;;;5021662;28;20053;-76
2022/06/18 09:14:56;;;;;;;14.50;3.13;;;32.10;61.90;;;;;;5031517;28;20097;-76
2022/06/18 09:17:33;;;;;;;24.97;3.10;;;31.90;62.40;;;;;;5030723;28;20487;-76
2022/06/18 09:20:14;;;;;;;14.77;4.43;;;31.90;60.90;;;;;;5037473;28;20280;-76
2022/06/18 09:22:51;;;;;;;;;;;32.10;61.60;;;;;;5034397;28;20219;-76
2022/06/18 09:25:19;;;;;;;14.15;3.33;;;32.30;62.70;;;;;;5019824;28;19913;-76
2022/06/18 09:27:54;;;;;;;7.88;2.65;;;32.30;60.60;;;;;;5021764;28;20430;-76
2022/06/18 09:30:23;;;;;;;17.95;3.25;;;32.40;60.00;;;;;;5021966;28;20038;-76
2022/06/18 09:32:54;;;;;;;10.52;3.10;;;32.30;60.00;;;;;;5024569;28;20022;-76
2022/06/18 09:35:26;;;;;;;12.13;2.75;;;32.20;60.40;;;;;;5025237;28;20030;-76
2022/06/18 09:38:19;;;;;;;10.73;2.47;;;32.30;60.40;;;;;;5029895;28;20018;-76
2022/06/18 09:40:57;;;;;;;9.63;2.60;;;32.50;62.00;;;;;;5032647;28;20109;-76
2022/06/18 09:43:45;;;;;;;11.27;3.47;;;32.60;60.50;;;;;;5028887;28;20502;-76
2022/06/18 09:46:26;;;;;;;15.40;3.05;;;32.50;59.60;;;;;;5033171;28;20029;-76
2022/06/18 09:48:53;;;;;;;10.65;3.13;;;32.50;59.50;;;;;;5007531;28;20132;-75
2022/06/18 09:51:41;;;;;;;15.65;3.17;;;32.60;59.80;;;;;;5034463;28;20036;-75
2022/06/18 09:54:10;;;;;;;11.90;2.60;;;32.70;57.40;;;;;;5019888;28;20028;-76
2022/06/18 09:56:54;;;;;;;22.73;2.60;;;32.60;57.20;;;;;;5018584;28;20048;-76
2022/06/18 09:59:34;;;;;;;17.90;2.88;;;32.60;57.30;;;;;;5034042;28;20030;-75
2022/06/18 10:02:01;;;;;;;;;;;32.60;57.70;;;;;;5036254;28;20036;-76
2022/06/18 10:07:28;;;;;;;9.63;2.10;;;32.90;57.90;;;;;;5025340;28;20091;-76
2022/06/18 10:10:02;;;;;;;13.32;2.50;;;32.80;58.00;;;;;;5014374;28;20021;-76
2022/06/18 10:12:40;;;;;;;15.00;3.35;;;32.70;58.40;;;;;;5014265;28;20021;-76
2022/06/18 10:15:10;;;;;;;9.90;2.83;;;32.80;57.20;;;;;;5016477;28;20155;-76
2022/06/18 10:17:59;;;;;;;19.27;3.38;;;32.80;56.90;;;;;;5032404;28;20044;-76
2022/06/18 10:20:39;;;;;;;7.13;2.28;;;32.80;57.50;;;;;;5035472;28;20026;-76
2022/06/18 10:23:39;;;;;;;9.38;2.83;;;32.80;58.60;;;;;;5025897;28;20063;-76
2022/06/18 10:26:35;;;;;;;9.43;3.10;;;32.80;58.60;;;;;;5019294;28;20440;-76
2022/06/18 10:29:23;;;;;;;6.82;2.80;;;32.90;58.70;;;;;;5021229;28;20037;-76
2022/06/18 10:32:05;;;;;;;12.00;2.50;;;33.10;60.20;;;;;;5027860;28;20029;-75
2022/06/18 10:34:59;;;;;;;14.13;3.40;;;33.30;61.00;;;;;;5021921;28;20386;-76
2022/06/18 10:37:43;;;;;;;7.55;2.83;;;33.50;59.60;;;;;;5028221;28;20386;-75
2022/06/18 10:40:32;;;;;;;12.20;3.53;;;33.60;59.70;;;;;;5026144;28;20026;-76
2022/06/18 10:43:15;;;;;;;11.15;2.70;;;33.60;60.00;;;;;;4980639;28;20038;-76
2022/06/18 10:46:07;;;;;;;15.95;3.25;;;33.60;60.50;;;;;;5024825;28;20075;-77
2022/06/18 10:48:34;;;;;;;13.05;2.83;;;33.60;60.10;;;;;;5031684;28;20060;-75
2022/06/18 10:51:01;;;;;;;7.40;2.65;;;33.60;60.20;;;;;;5034863;28;20026;-77
2022/06/18 10:53:45;;;;;;;9.32;3.38;;;33.70;61.50;;;;;;5033712;28;20436;-76
2022/06/18 10:56:20;;;;;;;10.88;3.22;;;33.80;60.90;;;;;;5036153;28;20021;-75
2022/06/18 10:58:59;;;;;;;22.15;3.47;;;34.00;61.80;;;;;;5018107;28;20032;-76
2022/06/18 11:01:46;;;;;;;14.85;3.00;;;34.00;60.70;;;;;;5003126;28;20021;-74
2022/06/18 11:04:31;;;;;;;11.30;3.30;;;33.80;60.10;;;;;;5011739;28;20021;-76
2022/06/18 11:07:03;;;;;;;17.15;3.83;;;33.70;61.20;;;;;;5024075;28;20409;-76
2022/06/18 11:09:37;;;;;;;16.00;3.38;;;33.80;61.80;;;;;;5026299;28;20037;-76
2022/06/18 11:12:20;;;;;;;9.07;2.50;;;33.70;61.00;;;;;;5025975;28;20093;-76
2022/06/18 11:14:46;;;;;;;15.38;3.53;;;33.70;62.40;;;;;;5006157;28;20025;-75
2022/06/18 11:17:43;;;;;;;11.75;3.20;;;33.80;61.60;;;;;;5028046;28;20018;-75
2022/06/18 11:20:15;;;;;;;12.00;3.40;;;33.70;63.20;;;;;;5024976;28;20037;-76
2022/06/18 11:22:41;;;;;;;10.10;4.00;;;33.70;62.90;;;;;;5033266;28;20104;-76
2022/06/18 11:25:43;;;;;;;10.60;3.40;;;33.70;63.10;;;;;;5017452;28;20025;-75
2022/06/18 11:28:25;;;;;;;16.88;4.03;;;33.70;64.90;;;;;;5009455;28;20032;-74
2022/06/18 11:30:52;;;;;;;8.77;3.28;;;33.80;65.50;;;;;;5018794;28;20026;-76
2022/06/18 11:33:38;;;;;;;10.52;4.07;;;33.90;66.20;;;;;;5018701;28;20070;-75
2022/06/18 11:36:11;;;;;;;17.60;3.85;;;34.00;65.30;;;;;;5002242;28;20048;-76
2022/06/18 11:38:38;;;;;;;13.23;3.25;;;34.10;65.40;;;;;;5023427;28;20093;-77
2022/06/18 11:41:38;;;;;;;10.10;3.17;;;34.10;66.40;;;;;;5022053;28;20026;-76
2022/06/18 11:44:11;;;;;;;9.95;3.72;;;34.00;65.30;;;;;;5022214;28;20018;-74
2022/06/18 11:46:44;;;;;;;12.63;3.63;;;34.00;65.70;;;;;;5025216;28;20085;-75
2022/06/18 11:49:43;;;;;;;8.43;3.20;;;34.00;66.60;;;;;;5028655;28;20467;-75
2022/06/18 11:52:17;;;;;;;12.20;4.00;;;34.10;66.80;;;;;;4985833;28;20037;-76
2022/06/18 11:55:13;;;;;;;11.48;3.53;;;34.10;66.90;;;;;;5028460;28;20018;-76
2022/06/18 11:58:02;;;;;;;12.60;3.70;;;34.10;68.10;;;;;;5031751;28;20053;-75
2022/06/18 12:00:55;;;;;;;13.82;2.97;;;34.30;68.80;;;;;;5025608;28;20032;-77
2022/06/18 12:03:33;;;;;;;8.63;3.25;;;34.30;66.90;;;;;;5017829;28;20055;-75
2022/06/18 12:06:04;;;;;;;5.78;3.25;;;34.20;66.70;;;;;;5013306;28;20018;-75
2022/06/18 12:08:32;;;;;;;12.38;3.90;;;34.50;67.80;;;;;;5028833;28;20018;-75
2022/06/18 12:11:14;;;;;;;11.13;2.97;;;34.50;66.50;;;;;;5011004;28;20475;-75
2022/06/18 12:13:41;;;;;;;7.13;2.97;;;34.50;67.00;;;;;;5014538;28;20024;-75
2022/06/18 12:16:34;;;;;;;10.18;3.83;;;34.50;67.80;;;;;;5015527;28;20067;-75
2022/06/18 12:19:22;;;;;;;8.20;3.47;;;34.40;66.40;;;;;;5014409;28;20495;-76
2022/06/18 12:21:56;;;;;;;11.13;3.10;;;34.60;66.80;;;;;;5018840;28;20440;-75
2022/06/18 12:24:43;;;;;;;12.95;3.35;;;34.50;66.60;;;;;;5019805;28;20163;-76
2022/06/18 12:27:25;;;;;;;12.98;2.85;;;34.50;67.50;;;;;;5020325;28;20017;-75
2022/06/18 12:30:12;;;;;;;7.03;2.88;;;34.70;67.80;;;;;;5022058;28;20029;-76
2022/06/18 12:33:01;;;;;;;9.32;2.67;;;34.80;64.90;;;;;;5021515;28;20014;-76
2022/06/18 12:35:33;;;;;;;7.38;2.47;;;34.70;64.80;;;;;;5024416;28;20056;-75
2022/06/18 12:38:10;;;;;;;7.68;2.53;;;34.70;64.20;;;;;;5005318;28;20049;-74
2022/06/18 12:41:18;;;;;;;8.40;2.60;;;34.70;65.20;;;;;;5027896;28;20026;-76
2022/06/18 12:44:06;;;;;;;14.02;3.58;;;34.80;65.00;;;;;;5028860;28;20087;-75
2022/06/18 12:46:41;;;;;;;7.53;2.60;;;34.80;64.80;;;;;;5014502;28;20038;-75
2022/06/18 12:49:11;;;;;;;13.48;3.22;;;34.80;65.10;;;;;;5013380;28;20458;-75
2022/06/18 12:51:46;;;;;;;7.72;2.80;;;34.80;63.80;;;;;;5011969;28;20057;-74
2022/06/18 12:54:29;;;;;;;10.25;2.88;;;35.00;65.40;;;;;;5015616;28;20037;-75
2022/06/18 12:57:26;;;;;;;13.20;3.00;;;35.10;64.40;;;;;;5034856;28;20030;-75
2022/06/18 13:00:19;;;;;;;17.10;3.50;;;34.90;63.20;;;;;;5033420;28;20048;-74
2022/06/18 13:03:04;;;;;;;11.77;3.28;;;35.00;65.10;;;;;;5035851;28;20021;-74
2022/06/18 13:05:46;;;;;;;18.40;3.38;;;35.10;65.00;;;;;;5022800;28;20069;-75
2022/06/18 13:08:23;;;;;;;11.70;2.88;;;35.10;63.20;;;;;;5010109;28;20021;-75
2022/06/18 13:11:18;;;;;;;10.13;3.08;;;34.90;63.10;;;;;;5024394;28;20030;-75
2022/06/18 13:13:50;;;;;;;16.20;3.08;;;34.70;62.80;;;;;;5016442;28;20510;-76
2022/06/18 13:16:47;;;;;;;4.80;2.08;;;34.70;63.20;;;;;;5012160;28;20105;-76
2022/06/18 13:19:24;;;;;;;9.82;2.85;;;34.50;63.10;;;;;;5029337;28;20026;-75
2022/06/18 13:21:51;;;;;;;9.93;2.60;;;34.60;63.10;;;;;;5016032;28;20441;-75
2022/06/18 13:30:33;;;;;;;5.25;2.50;;;34.80;63.50;;;;;;5030967;28;20039;-75